Terminal Aerodrome Forecast
Issued by NWS Shreveport, LA

Home | Current Version | Previous Version | Text Only | Print | Product List | Glossary On
Versions: 1 2 3 4 5 6 7 8 9 10 11 12 13 14 15 16 17 18 19 20 21 22 23 24 25 26 27 28 29 30
000
FTUS44 KSHV 171943 AAA
TAFTXK
TAF AMD
KTXK 171943Z 1720/1818 24003KT P6SM BKN005 OVC009
     FM172100 29006KT 5SM -RA BR BKN007 OVC012
     FM172300 32005KT P6SM OVC015
     FM180100 VRB03KT 6SM BR BKN250
     FM181000 10005KT 3SM BR OVC007
     FM181500 11009KT P6SM OVC025=

USA.gov is the U.S. government's official web portal to all federal, state and local government web resources and services.